createdAt,value
2023-04-05T00:00:30.045Z,50.902393
2023-04-05T00:01:30.037Z,50.902428
2023-04-05T00:02:30.155Z,50.902386
2023-04-05T00:03:30.088Z,50.902370
2023-04-05T00:04:30.218Z,50.902374
2023-04-05T00:05:30.001Z,50.902367
2023-04-05T00:06:30.019Z,50.902386
2023-04-05T00:07:29.987Z,50.902386
2023-04-05T00:08:29.992Z,50.902393
2023-04-05T00:09:30.015Z,50.902367
2023-04-05T00:10:30.006Z,50.902412
2023-04-05T00:11:29.954Z,50.902386
2023-04-05T00:12:29.956Z,50.902386
2023-04-05T00:13:29.962Z,50.902382
2023-04-05T00:14:29.960Z,50.902374
2023-04-05T00:15:30.923Z,50.902397
2023-04-05T00:16:29.962Z,50.902393
2023-04-05T00:17:29.936Z,50.902370
2023-04-05T00:18:29.905Z,50.902370
2023-04-05T00:19:29.921Z,50.902386
2023-04-05T00:20:29.888Z,50.902393
2023-04-05T00:21:29.888Z,50.902378
2023-04-05T00:22:29.941Z,50.902386
2023-04-05T00:23:29.872Z,50.902382
2023-04-05T00:24:29.901Z,50.902378
2023-04-05T00:25:29.854Z,50.902378
2023-04-05T00:26:29.865Z,50.902367
2023-04-05T00:27:29.836Z,50.902378
2023-04-05T00:28:29.890Z,50.902348
2023-04-05T00:29:29.861Z,50.902359
2023-04-05T00:30:29.824Z,50.902370
2023-04-05T00:31:29.877Z,50.902363
2023-04-05T00:32:29.845Z,50.902382
2023-04-05T00:33:29.804Z,50.902367
2023-04-05T00:34:29.807Z,50.902382
2023-04-05T00:35:29.806Z,50.902386
2023-04-05T00:36:29.796Z,50.902390
2023-04-05T00:37:29.758Z,50.902428
2023-04-05T00:38:29.774Z,50.902431
2023-04-05T00:39:29.782Z,50.902424
2023-04-05T00:40:29.748Z,50.902405
2023-04-05T00:41:29.776Z,50.902367
2023-04-05T00:42:29.724Z,50.902405
2023-04-05T00:43:29.716Z,50.902367
2023-04-05T00:44:29.748Z,50.902393
2023-04-05T00:45:29.709Z,50.902355
2023-04-05T00:46:29.882Z,50.902378
2023-04-05T00:47:29.722Z,50.902405
2023-04-05T00:48:29.727Z,50.902424
2023-04-05T00:49:29.670Z,50.902428
2023-04-05T00:50:29.741Z,50.902405
2023-04-05T00:51:29.682Z,50.902355
2023-04-05T00:52:29.653Z,50.902351
2023-04-05T00:53:29.639Z,50.902397
2023-04-05T00:54:29.700Z,50.902412
2023-04-05T00:55:29.661Z,50.902401
2023-04-05T00:56:29.653Z,50.902367
2023-04-05T00:57:29.626Z,50.902428
2023-04-05T00:58:29.627Z,50.902409
2023-04-05T00:59:29.703Z,50.902393
2023-04-05T01:00:29.624Z,50.902382
2023-04-05T01:01:29.636Z,50.902367
2023-04-05T01:02:29.602Z,50.902370
2023-04-05T01:03:30.569Z,50.902321
2023-04-05T01:04:29.576Z,50.902359
2023-04-05T01:05:29.572Z,50.902370
2023-04-05T01:06:29.564Z,50.902363
2023-04-05T01:07:29.543Z,50.902405
2023-04-05T01:08:29.530Z,50.902424
2023-04-05T01:09:29.585Z,50.902454
2023-04-05T01:10:29.558Z,50.902485
2023-04-05T01:11:29.514Z,50.902424
2023-04-05T01:12:29.530Z,50.902386
2023-04-05T01:13:29.500Z,50.902424
2023-04-05T01:14:29.481Z,50.902451
2023-04-05T01:15:29.520Z,50.902393
2023-04-05T01:16:29.497Z,50.902382
2023-04-05T01:17:29.471Z,50.902424
2023-04-05T01:18:29.452Z,50.902458
2023-04-05T01:19:29.454Z,50.902370
2023-04-05T01:20:29.484Z,50.902447
2023-04-05T01:21:29.423Z,50.902466
2023-04-05T01:22:29.423Z,50.902378
2023-04-05T01:23:29.428Z,50.902332
2023-04-05T01:24:29.409Z,50.902382
2023-04-05T01:25:29.436Z,50.902298
2023-04-05T01:26:29.407Z,50.902412
2023-04-05T01:27:29.392Z,50.902424
2023-04-05T01:28:29.372Z,50.902374
2023-04-05T01:29:29.372Z,50.902390
2023-04-05T01:30:29.389Z,50.902374
2023-04-05T01:31:29.387Z,50.902355
2023-04-05T01:32:29.362Z,50.902401
2023-04-05T01:33:29.336Z,50.902390
2023-04-05T01:34:29.398Z,50.902390
2023-04-05T01:35:29.781Z,50.902416
2023-04-05T01:36:29.334Z,50.902382
2023-04-05T01:37:29.311Z,50.902481
2023-04-05T01:38:29.299Z,50.902390
2023-04-05T01:39:29.298Z,50.902424
2023-04-05T01:40:29.311Z,50.902439
2023-04-05T01:41:29.279Z,50.902393
2023-04-05T01:42:29.317Z,50.902447
2023-04-05T01:43:29.262Z,50.902428
2023-04-05T01:44:29.257Z,50.902420
2023-04-05T01:45:29.315Z,50.902420
2023-04-05T01:46:29.285Z,50.902420
2023-04-05T01:47:29.291Z,50.902424
2023-04-05T01:48:29.224Z,50.902420
2023-04-05T01:49:29.265Z,50.902412
2023-04-05T01:50:29.271Z,50.902382
2023-04-05T01:51:29.316Z,50.902397
2023-04-05T01:52:29.198Z,50.902454
2023-04-05T01:53:29.206Z,50.902439
2023-04-05T01:54:29.195Z,50.902428
2023-04-05T01:55:29.203Z,50.902405
2023-04-05T01:56:29.177Z,50.902447
2023-04-05T01:57:29.179Z,50.902439
2023-04-05T01:58:29.157Z,50.902462
2023-04-05T01:59:29.186Z,50.902473
2023-04-05T02:00:29.204Z,50.902447
2023-04-05T02:01:29.189Z,50.902466
2023-04-05T02:02:29.185Z,50.902439
2023-04-05T02:03:29.245Z,50.902431
2023-04-05T02:04:29.117Z,50.902428
2023-04-05T02:05:29.164Z,50.902409
2023-04-05T02:06:29.093Z,50.902431
2023-04-05T02:07:30.090Z,50.902443
2023-04-05T02:08:29.109Z,50.902405
2023-04-05T02:09:29.084Z,50.902401
2023-04-05T02:10:29.130Z,50.902493
2023-04-05T02:11:29.075Z,50.902473
2023-04-05T02:12:29.058Z,50.902424
2023-04-05T02:13:29.063Z,50.902523
2023-04-05T02:14:29.045Z,50.902599
2023-04-05T02:15:29.064Z,50.902493
2023-04-05T02:16:29.083Z,50.902462
2023-04-05T02:17:29.026Z,50.902473
2023-04-05T02:18:29.027Z,50.902630
2023-04-05T02:19:29.000Z,50.902637
2023-04-05T02:20:29.005Z,50.902534
2023-04-05T02:21:29.011Z,50.902428
2023-04-05T02:22:28.984Z,50.902386
2023-04-05T02:23:28.985Z,50.902462
2023-04-05T02:24:28.978Z,50.902439
2023-04-05T02:25:28.975Z,50.902466
2023-04-05T02:26:28.981Z,50.902424
2023-04-05T02:27:28.953Z,50.902390
2023-04-05T02:28:28.963Z,50.902382
2023-04-05T02:29:28.954Z,50.902397
2023-04-05T02:30:28.931Z,50.902428
2023-04-05T02:31:28.985Z,50.902428
2023-04-05T02:32:28.945Z,50.902435
2023-04-05T02:33:28.909Z,50.902416
2023-04-05T02:34:28.953Z,50.902466
2023-04-05T02:35:28.912Z,50.902435
2023-04-05T02:36:28.920Z,50.902439
2023-04-05T02:37:28.890Z,50.902420
2023-04-05T02:38:28.878Z,50.902397
2023-04-05T02:39:28.862Z,50.902420
2023-04-05T02:40:28.866Z,50.902454
2023-04-05T02:41:28.882Z,50.902405
2023-04-05T02:42:28.847Z,50.902416
2023-04-05T02:43:28.841Z,50.902405
2023-04-05T02:44:28.833Z,50.902405
2023-04-05T02:45:28.870Z,50.902428
2023-04-05T02:46:28.843Z,50.902435
2023-04-05T02:47:28.832Z,50.902462
2023-04-05T02:48:28.803Z,50.902412
2023-04-05T02:49:28.801Z,50.902401
2023-04-05T02:50:28.785Z,50.902443
2023-04-05T02:51:28.814Z,50.902466
2023-04-05T02:52:28.781Z,50.902477
2023-04-05T02:53:28.787Z,50.902458
2023-04-05T02:54:28.780Z,50.902397
2023-04-05T02:55:28.758Z,50.902405
2023-04-05T02:56:28.774Z,50.902409
2023-04-05T02:57:28.742Z,50.902386
2023-04-05T02:58:28.739Z,50.902401
2023-04-05T02:59:28.842Z,50.902393
2023-04-05T03:00:28.734Z,50.902390
2023-04-05T03:01:28.772Z,50.902367
2023-04-05T03:02:28.731Z,50.902370
2023-04-05T03:03:28.730Z,50.902409
2023-04-05T03:04:28.698Z,50.902401
2023-04-05T03:05:28.683Z,50.902390
2023-04-05T03:06:28.700Z,50.902420
2023-04-05T03:07:28.676Z,50.902424
2023-04-05T03:08:28.663Z,50.902435
2023-04-05T03:09:28.651Z,50.902409
2023-04-05T03:10:28.651Z,50.902416
2023-04-05T03:11:28.682Z,50.902428
2023-04-05T03:12:28.628Z,50.902409
2023-04-05T03:13:28.629Z,50.902416
2023-04-05T03:14:28.619Z,50.902439
2023-04-05T03:15:28.609Z,50.902401
2023-04-05T03:16:28.681Z,50.902390
2023-04-05T03:17:28.652Z,50.902397
2023-04-05T03:18:28.594Z,50.902386
2023-04-05T03:19:28.596Z,50.902435
2023-04-05T03:20:28.585Z,50.902493
2023-04-05T03:21:28.655Z,50.902393
2023-04-05T03:22:28.577Z,50.902401
2023-04-05T03:23:28.581Z,50.902424
2023-04-05T03:24:28.544Z,50.902370
2023-04-05T03:25:28.547Z,50.902416
2023-04-05T03:26:28.562Z,50.902420
2023-04-05T03:27:28.541Z,50.902409
2023-04-05T03:28:28.681Z,50.902393
2023-04-05T03:29:28.515Z,50.902374
2023-04-05T03:30:28.502Z,50.902374
2023-04-05T03:31:28.638Z,50.902363
2023-04-05T03:32:28.534Z,50.902393
2023-04-05T03:33:28.507Z,50.902405
2023-04-05T03:34:28.476Z,50.902451
2023-04-05T03:35:28.492Z,50.902397
2023-04-05T03:36:28.485Z,50.902348
2023-04-05T03:37:29.453Z,50.902374
2023-04-05T03:38:28.510Z,50.902409
2023-04-05T03:39:28.442Z,50.902397
2023-04-05T03:40:28.475Z,50.902405
2023-04-05T03:41:28.454Z,50.902435
2023-04-05T03:42:28.424Z,50.902409
2023-04-05T03:43:28.430Z,50.902374
2023-04-05T03:44:28.404Z,50.902393
2023-04-05T03:45:28.399Z,50.902370
2023-04-05T03:46:28.469Z,50.902370
2023-04-05T03:47:28.422Z,50.902397
2023-04-05T03:48:28.397Z,50.902409
2023-04-05T03:49:28.362Z,50.902466
2023-04-05T03:50:28.409Z,50.902431
2023-04-05T03:51:28.401Z,50.902416
2023-04-05T03:52:28.346Z,50.902397
2023-04-05T03:53:28.335Z,50.902428
2023-04-05T03:54:28.339Z,50.902405
2023-04-05T03:55:28.334Z,50.902386
2023-04-05T03:56:28.418Z,50.902424
2023-04-05T03:57:28.312Z,50.902382
2023-04-05T03:58:28.322Z,50.902409
2023-04-05T03:59:28.409Z,50.902378
2023-04-05T04:00:28.283Z,50.902374
2023-04-05T04:01:28.314Z,50.902397
2023-04-05T04:02:28.417Z,50.902390
2023-04-05T04:03:28.299Z,50.902367
2023-04-05T04:04:28.334Z,50.902382
2023-04-05T04:05:28.251Z,50.902351
2023-04-05T04:06:28.278Z,50.902332
2023-04-05T04:07:28.261Z,50.902359
2023-04-05T04:08:28.233Z,50.902325
2023-04-05T04:09:28.223Z,50.902351
2023-04-05T04:10:28.214Z,50.902370
2023-04-05T04:11:28.205Z,50.902351
2023-04-05T04:12:29.237Z,50.902336
2023-04-05T04:13:28.193Z,50.902287
2023-04-05T04:14:28.187Z,50.902287
2023-04-05T04:15:28.182Z,50.902248
2023-04-05T04:16:28.826Z,50.902287
2023-04-05T04:17:29.238Z,50.902298
2023-04-05T04:18:28.165Z,50.902378
2023-04-05T04:19:29.149Z,50.902351
2023-04-05T04:20:28.136Z,50.902340
2023-04-05T04:21:28.133Z,50.902355
2023-04-05T04:22:28.145Z,50.902401
2023-04-05T04:23:28.128Z,50.902367
2023-04-05T04:24:28.116Z,50.902405
2023-04-05T04:25:28.095Z,50.902325
2023-04-05T04:26:28.099Z,50.902393
2023-04-05T04:27:28.116Z,50.902374
2023-04-05T04:28:28.095Z,50.902367
2023-04-05T04:29:28.077Z,50.902416
2023-04-05T04:30:28.069Z,50.902328
2023-04-05T04:31:28.074Z,50.902328
2023-04-05T04:32:28.112Z,50.902340
2023-04-05T04:33:28.048Z,50.902428
2023-04-05T04:34:28.039Z,50.902306
2023-04-05T04:35:28.112Z,50.902279
2023-04-05T04:36:28.038Z,50.902412
2023-04-05T04:37:28.048Z,50.902405
2023-04-05T04:38:28.016Z,50.902313
2023-04-05T04:39:28.007Z,50.902252
2023-04-05T04:40:27.999Z,50.902325
2023-04-05T04:41:40.125Z,50.902321
2023-04-05T04:42:28.013Z,50.902393
2023-04-05T04:43:27.980Z,50.902416
2023-04-05T04:44:28.005Z,50.902378
2023-04-05T04:45:27.991Z,50.902363
2023-04-05T04:46:27.976Z,50.902348
2023-04-05T04:47:27.995Z,50.902470
2023-04-05T04:48:27.951Z,50.902378
2023-04-05T04:49:27.941Z,50.902302
2023-04-05T04:50:27.936Z,50.902363
2023-04-05T04:51:27.924Z,50.902325
2023-04-05T04:52:27.951Z,50.902229
2023-04-05T04:53:27.903Z,50.902313
2023-04-05T04:54:27.994Z,50.902309
2023-04-05T04:55:27.932Z,50.902325
2023-04-05T04:56:27.895Z,50.902287
2023-04-05T04:57:27.898Z,50.902287
2023-04-05T04:58:27.870Z,50.902287
2023-04-05T04:59:27.898Z,50.902218
2023-04-05T05:00:27.875Z,50.902298
2023-04-05T05:01:27.950Z,50.902370
2023-04-05T05:02:30.568Z,50.902359
2023-04-05T05:03:27.846Z,50.902424
2023-04-05T05:04:27.950Z,50.902374
2023-04-05T05:05:27.856Z,50.902405
2023-04-05T05:06:27.819Z,50.902473
2023-04-05T05:07:27.848Z,50.902424
2023-04-05T05:08:27.814Z,50.902363
2023-04-05T05:09:27.794Z,50.902390
2023-04-05T05:10:27.792Z,50.902412
2023-04-05T05:11:27.783Z,50.902397
2023-04-05T05:12:27.804Z,50.902416
2023-04-05T05:13:27.784Z,50.902390
2023-04-05T05:14:27.754Z,50.902370
2023-04-05T05:15:27.793Z,50.902431
2023-04-05T05:16:27.790Z,50.902416
2023-04-05T05:17:27.786Z,50.902405
2023-04-05T05:18:27.734Z,50.902420
2023-04-05T05:19:27.729Z,50.902405
2023-04-05T05:20:27.726Z,50.902447
2023-04-05T05:21:27.712Z,50.902390
2023-04-05T05:22:27.755Z,50.902370
2023-04-05T05:23:27.694Z,50.902393
2023-04-05T05:24:27.698Z,50.902428
2023-04-05T05:25:28.444Z,50.902405
2023-04-05T05:26:27.713Z,50.902401
2023-04-05T05:27:28.744Z,50.902397
2023-04-05T05:28:27.663Z,50.902378
2023-04-05T05:29:27.655Z,50.902351
2023-04-05T05:30:28.651Z,50.902397
2023-04-05T05:31:27.680Z,50.902397
2023-04-05T05:32:27.685Z,50.902435
2023-04-05T05:33:27.627Z,50.902431
2023-04-05T05:34:27.621Z,50.902393
2023-04-05T05:35:27.666Z,50.902409
2023-04-05T05:36:27.606Z,50.902370
2023-04-05T05:37:27.627Z,50.902397
2023-04-05T05:38:27.587Z,50.902397
2023-04-05T05:39:27.692Z,50.902340
2023-04-05T05:40:27.580Z,50.902367
2023-04-05T05:41:27.572Z,50.902393
2023-04-05T05:42:27.617Z,50.902393
2023-04-05T05:43:27.554Z,50.902401
2023-04-05T05:44:27.564Z,50.902405
2023-04-05T05:45:27.552Z,50.902431
2023-04-05T05:46:27.638Z,50.902431
2023-04-05T05:47:27.587Z,50.902409
2023-04-05T05:48:27.723Z,50.902393
2023-04-05T05:49:27.519Z,50.902412
2023-04-05T05:50:27.521Z,50.902409
2023-04-05T05:51:27.502Z,50.902363
2023-04-05T05:52:27.524Z,50.902279
2023-04-05T05:53:27.473Z,50.902397
2023-04-05T05:54:28.475Z,50.902443
2023-04-05T05:55:27.476Z,50.902431
2023-04-05T05:56:27.461Z,50.902397
2023-04-05T05:57:27.529Z,50.902321
2023-04-05T05:58:27.481Z,50.902355
2023-04-05T05:59:27.557Z,50.902302
2023-04-05T06:00:27.472Z,50.902252
2023-04-05T06:01:27.422Z,50.902306
2023-04-05T06:02:27.498Z,50.902355
2023-04-05T06:03:27.493Z,50.902332
2023-04-05T06:04:27.489Z,50.902290
2023-04-05T06:05:27.397Z,50.902336
2023-04-05T06:06:27.392Z,50.902393
2023-04-05T06:07:27.403Z,50.902439
2023-04-05T06:08:27.374Z,50.902367
2023-04-05T06:09:27.371Z,50.902344
2023-04-05T06:10:27.362Z,50.902397
2023-04-05T06:11:27.381Z,50.902454
2023-04-05T06:12:28.755Z,50.902435
2023-04-05T06:13:27.335Z,50.902424
2023-04-05T06:14:27.337Z,50.902405
2023-04-05T06:15:27.362Z,50.902378
2023-04-05T06:16:27.389Z,50.902382
2023-04-05T06:17:27.445Z,50.902409
2023-04-05T06:18:27.303Z,50.902428
2023-04-05T06:19:27.289Z,50.902447
2023-04-05T06:20:27.310Z,50.902435
2023-04-05T06:21:27.270Z,50.902409
2023-04-05T06:22:27.307Z,50.902397
2023-04-05T06:23:27.264Z,50.902397
2023-04-05T06:24:27.267Z,50.902397
2023-04-05T06:25:27.245Z,50.902367
2023-04-05T06:26:27.247Z,50.902359
2023-04-05T06:27:27.294Z,50.902378
2023-04-05T06:28:27.221Z,50.902401
2023-04-05T06:29:27.220Z,50.902393
2023-04-05T06:30:27.212Z,50.902374
2023-04-05T06:31:27.304Z,50.902390
2023-04-05T06:32:27.220Z,50.902397
2023-04-05T06:33:27.212Z,50.902397
2023-04-05T06:34:27.176Z,50.902378
2023-04-05T06:35:27.174Z,50.902401
2023-04-05T06:36:27.827Z,50.902431
2023-04-05T06:37:28.156Z,50.902409
2023-04-05T06:38:27.222Z,50.902412
2023-04-05T06:39:27.140Z,50.902420
2023-04-05T06:40:27.133Z,50.902401
2023-04-05T06:41:27.122Z,50.902405
2023-04-05T06:42:28.117Z,50.902401
2023-04-05T06:43:28.124Z,50.902390
2023-04-05T06:44:27.098Z,50.902370
2023-04-05T06:45:27.128Z,50.902370
2023-04-05T06:46:27.129Z,50.902378
2023-04-05T06:47:27.100Z,50.902397
2023-04-05T06:48:27.066Z,50.902420
2023-04-05T06:49:27.070Z,50.902386
2023-04-05T06:50:27.080Z,50.902393
2023-04-05T06:51:27.051Z,50.902374
2023-04-05T06:52:27.041Z,50.902378
2023-04-05T06:53:27.037Z,50.902382
2023-04-05T06:54:27.016Z,50.902397
2023-04-05T06:55:27.046Z,50.902412
2023-04-05T06:56:27.016Z,50.902393
2023-04-05T06:57:27.008Z,50.902378
2023-04-05T06:58:27.028Z,50.902382
2023-04-05T06:59:27.012Z,50.902424
2023-04-05T07:00:26.979Z,50.902397
2023-04-05T07:01:27.049Z,50.902386
2023-04-05T07:02:27.050Z,50.902370
2023-04-05T07:03:26.970Z,50.902397
2023-04-05T07:04:27.008Z,50.902397
2023-04-05T07:05:26.961Z,50.902397
2023-04-05T07:06:26.963Z,50.902386
2023-04-05T07:07:26.933Z,50.902390
2023-04-05T07:08:26.926Z,50.902367
2023-04-05T07:09:26.923Z,50.902393
2023-04-05T07:10:26.912Z,50.902390
2023-04-05T07:11:26.929Z,50.902386
2023-04-05T07:12:26.888Z,50.902348
2023-04-05T07:13:26.918Z,50.902367
2023-04-05T07:14:26.877Z,50.902420
2023-04-05T07:15:26.864Z,50.902428
2023-04-05T07:16:26.962Z,50.902405
2023-04-05T07:17:26.873Z,50.902378
2023-04-05T07:18:26.852Z,50.902390
2023-04-05T07:19:26.838Z,50.902370
2023-04-05T07:20:26.840Z,50.902359
2023-04-05T07:21:26.855Z,50.902351
2023-04-05T07:22:26.814Z,50.902401
2023-04-05T07:23:26.810Z,50.902390
2023-04-05T07:24:26.804Z,50.902374
2023-04-05T07:25:26.796Z,50.902401
2023-04-05T07:26:26.817Z,50.902405
2023-04-05T07:27:26.775Z,50.902393
2023-04-05T07:28:26.770Z,50.902294
2023-04-05T07:29:26.753Z,50.902374
2023-04-05T07:30:27.758Z,50.902390
2023-04-05T07:31:26.788Z,50.902390
2023-04-05T07:32:26.936Z,50.902409
2023-04-05T07:33:26.731Z,50.902393
2023-04-05T07:34:26.729Z,50.902332
2023-04-05T07:35:26.900Z,50.902435
2023-04-05T07:36:27.638Z,50.902405
2023-04-05T07:37:26.700Z,50.902412
2023-04-05T07:38:27.713Z,50.902378
2023-04-05T07:39:26.769Z,50.902386
2023-04-05T07:40:26.694Z,50.902416
2023-04-05T07:41:26.713Z,50.902393
2023-04-05T07:42:26.688Z,50.902390
2023-04-05T07:43:26.660Z,50.902386
2023-04-05T07:44:26.648Z,50.902390
2023-04-05T07:45:27.663Z,50.902428
2023-04-05T07:46:26.746Z,50.902390
2023-04-05T07:47:26.663Z,50.902328
2023-04-05T07:48:26.626Z,50.902355
2023-04-05T07:49:26.648Z,50.902397
2023-04-05T07:50:26.632Z,50.902374
2023-04-05T07:51:26.655Z,50.902386
2023-04-05T07:52:26.595Z,50.902397
2023-04-05T07:53:26.588Z,50.902424
2023-04-05T07:54:26.610Z,50.902424
2023-04-05T07:55:26.588Z,50.902378
2023-04-05T07:56:26.590Z,50.902443
2023-04-05T07:57:26.555Z,50.902447
2023-04-05T07:58:26.549Z,50.902412
2023-04-05T07:59:26.614Z,50.902390
2023-04-05T08:00:26.564Z,50.902363
2023-04-05T08:01:26.559Z,50.902412
2023-04-05T08:02:26.548Z,50.902397
2023-04-05T08:03:26.663Z,50.902393
2023-04-05T08:04:26.512Z,50.902370
2023-04-05T08:05:26.611Z,50.902397
2023-04-05T08:06:26.516Z,50.902428
2023-04-05T08:07:26.492Z,50.902420
2023-04-05T08:08:26.489Z,50.902401
2023-04-05T08:09:26.481Z,50.902412
2023-04-05T08:10:26.462Z,50.902431
2023-04-05T08:11:26.478Z,50.902393
2023-04-05T08:12:26.445Z,50.902447
2023-04-05T08:13:26.440Z,50.902424
2023-04-05T08:14:26.426Z,50.902393
2023-04-05T08:15:26.424Z,50.902386
2023-04-05T08:16:26.509Z,50.902420
2023-04-05T08:17:26.438Z,50.902428
2023-04-05T08:18:26.415Z,50.902412
2023-04-05T08:19:26.400Z,50.902405
2023-04-05T08:20:26.389Z,50.902401
2023-04-05T08:21:26.404Z,50.902390
2023-04-05T08:22:26.373Z,50.902428
2023-04-05T08:23:26.364Z,50.902405
2023-04-05T08:24:26.407Z,50.902393
2023-04-05T08:25:26.363Z,50.902420
2023-04-05T08:26:26.369Z,50.902424
2023-04-05T08:27:26.327Z,50.902443
2023-04-05T08:28:26.314Z,50.902443
2023-04-05T08:29:27.323Z,50.902439
2023-04-05T08:30:26.310Z,50.902435
2023-04-05T08:31:26.371Z,50.902435
2023-04-05T08:32:26.308Z,50.902439
2023-04-05T08:33:26.428Z,50.902451
2023-04-05T08:34:26.279Z,50.902431
2023-04-05T08:35:26.292Z,50.902435
2023-04-05T08:36:26.290Z,50.902447
2023-04-05T08:37:26.256Z,50.902431
2023-04-05T08:38:26.275Z,50.902439
2023-04-05T08:39:26.244Z,50.902424
2023-04-05T08:40:26.242Z,50.902428
2023-04-05T08:41:26.242Z,50.902454
2023-04-05T08:42:26.251Z,50.902428
2023-04-05T08:43:26.212Z,50.902435
2023-04-05T08:44:26.202Z,50.902431
2023-04-05T08:45:26.208Z,50.902431
2023-04-05T08:46:26.233Z,50.902443
2023-04-05T08:47:26.246Z,50.902473
2023-04-05T08:48:26.179Z,50.902470
2023-04-05T08:49:26.177Z,50.902431
2023-04-05T08:50:26.170Z,50.902462
2023-04-05T08:51:26.157Z,50.902458
2023-04-05T08:52:26.174Z,50.902458
2023-04-05T08:53:26.140Z,50.902508
2023-04-05T08:54:26.151Z,50.902435
2023-04-05T08:55:26.138Z,50.902458
2023-04-05T08:56:26.135Z,50.902439
2023-04-05T08:57:26.146Z,50.902439
2023-04-05T08:58:26.105Z,50.902420
2023-04-05T08:59:26.165Z,50.902435
2023-04-05T09:00:26.095Z,50.902439
2023-04-05T09:01:26.096Z,50.902466
2023-04-05T09:02:26.192Z,50.902431
2023-04-05T09:03:26.166Z,50.902443
2023-04-05T09:04:26.057Z,50.902428
2023-04-05T09:05:26.050Z,50.902416
2023-04-05T09:06:26.047Z,50.902424
2023-04-05T09:07:26.059Z,50.902447
2023-04-05T09:08:26.036Z,50.902390
2023-04-05T09:09:26.054Z,50.902390
2023-04-05T09:10:26.011Z,50.902401
2023-04-05T09:11:26.022Z,50.902405
2023-04-05T09:12:26.043Z,50.902397
2023-04-05T09:13:25.992Z,50.902390
2023-04-05T09:14:25.984Z,50.902409
2023-04-05T09:15:25.986Z,50.902397
2023-04-05T09:16:25.998Z,50.902390
2023-04-05T09:17:25.984Z,50.902382
2023-04-05T09:18:27.279Z,50.902374
2023-04-05T09:19:26.960Z,50.902370
2023-04-05T09:20:26.017Z,50.902374
2023-04-05T09:21:25.936Z,50.902401
2023-04-05T09:22:25.946Z,50.902397
2023-04-05T09:23:25.942Z,50.902412
2023-04-05T09:24:25.916Z,50.902401
2023-04-05T09:25:25.899Z,50.902378
2023-04-05T09:26:25.896Z,50.902382
2023-04-05T09:27:25.922Z,50.902401
2023-04-05T09:28:25.891Z,50.902412
2023-04-05T09:29:25.886Z,50.902428
2023-04-05T09:30:25.877Z,50.902378
2023-04-05T09:31:25.882Z,50.902390
2023-04-05T09:32:25.907Z,50.902370
2023-04-05T09:33:25.843Z,50.902348
2023-04-05T09:34:25.835Z,50.902382
2023-04-05T09:35:25.832Z,50.902367
2023-04-05T09:36:25.836Z,50.902409
2023-04-05T09:37:25.833Z,50.902386
2023-04-05T09:38:25.798Z,50.902386
2023-04-05T09:39:25.794Z,50.902367
2023-04-05T09:40:25.784Z,50.902378
2023-04-05T09:41:25.774Z,50.902401
2023-04-05T09:42:26.835Z,50.902378
2023-04-05T09:43:25.770Z,50.902409
2023-04-05T09:44:25.758Z,50.902424
2023-04-05T09:45:25.746Z,50.902401
2023-04-05T09:46:25.754Z,50.902416
2023-04-05T09:47:25.818Z,50.902420
2023-04-05T09:48:25.728Z,50.902409
2023-04-05T09:49:25.732Z,50.902374
2023-04-05T09:50:25.708Z,50.902397
2023-04-05T09:51:25.710Z,50.902405
2023-04-05T09:52:25.731Z,50.902401
2023-04-05T09:53:25.691Z,50.902405
2023-04-05T09:54:25.682Z,50.902424
2023-04-05T09:55:25.674Z,50.902416
2023-04-05T09:56:25.662Z,50.902397
2023-04-05T09:57:26.734Z,50.902401
2023-04-05T09:58:25.650Z,50.902409
2023-04-05T09:59:25.681Z,50.902416
2023-04-05T10:00:25.651Z,50.902386
2023-04-05T10:01:25.643Z,50.902393
2023-04-05T10:02:25.735Z,50.902409
2023-04-05T10:03:25.685Z,50.902393
2023-04-05T10:04:26.754Z,50.902420
2023-04-05T10:05:25.588Z,50.902439
2023-04-05T10:06:25.588Z,50.902393
2023-04-05T10:07:25.571Z,50.902409
2023-04-05T10:08:25.603Z,50.902401
2023-04-05T10:09:25.560Z,50.902386
2023-04-05T10:10:25.605Z,50.902386
2023-04-05T10:11:25.548Z,50.902374
2023-04-05T10:12:25.543Z,50.902367
2023-04-05T10:13:25.555Z,50.902367
2023-04-05T10:14:25.528Z,50.902363
2023-04-05T10:15:25.535Z,50.902382
2023-04-05T10:16:25.550Z,50.902393
2023-04-05T10:17:25.528Z,50.902428
2023-04-05T10:18:25.520Z,50.902393
2023-04-05T10:19:25.490Z,50.902390
2023-04-05T10:20:25.495Z,50.902382
2023-04-05T10:21:25.473Z,50.902382
2023-04-05T10:22:25.459Z,50.902374
2023-04-05T10:23:25.491Z,50.902374
2023-04-05T10:24:25.465Z,50.902363
2023-04-05T10:25:25.439Z,50.902363
2023-04-05T10:26:25.438Z,50.902359
2023-04-05T10:27:25.432Z,50.902382
2023-04-05T10:28:25.459Z,50.902348
2023-04-05T10:29:25.406Z,50.902359
2023-04-05T10:30:25.466Z,50.902367
2023-04-05T10:31:37.030Z,50.902370
2023-04-05T10:32:27.404Z,50.902363
2023-04-05T10:33:25.469Z,50.902367
2023-04-05T10:34:25.433Z,50.902370
2023-04-05T10:35:25.423Z,50.902363
2023-04-05T10:36:25.385Z,50.902378
2023-04-05T10:37:25.412Z,50.902382
2023-04-05T10:38:25.379Z,50.902397
2023-04-05T10:39:25.339Z,50.902393
2023-04-05T10:40:25.368Z,50.902405
2023-04-05T10:41:26.324Z,50.902401
2023-04-05T10:42:57.296Z,50.902401
2023-04-05T10:43:25.359Z,50.902454
2023-04-05T10:44:26.979Z,50.902447
2023-04-05T10:45:26.299Z,50.902405
2023-04-05T10:46:25.331Z,50.902397
2023-04-05T10:47:25.328Z,50.902412
2023-04-05T10:48:25.314Z,50.902386
2023-04-05T10:49:25.264Z,50.902351
2023-04-05T10:50:25.284Z,50.902416
2023-04-05T10:51:25.263Z,50.902401
2023-04-05T10:52:25.232Z,50.902390
2023-04-05T10:53:25.309Z,50.902351
2023-04-05T10:54:25.413Z,50.902336
2023-04-05T10:55:25.262Z,50.902367
2023-04-05T10:56:25.226Z,50.902378
2023-04-05T10:57:25.262Z,50.902390
2023-04-05T10:58:25.250Z,50.902367
2023-04-05T10:59:25.274Z,50.902378
2023-04-05T11:00:25.190Z,50.902393
2023-04-05T11:01:25.234Z,50.902359
2023-04-05T11:02:25.202Z,50.902367
2023-04-05T11:03:25.384Z,50.902386
2023-04-05T11:04:25.257Z,50.902378
2023-04-05T11:05:25.169Z,50.902393
2023-04-05T11:06:25.171Z,50.902390
2023-04-05T11:07:25.138Z,50.902382
2023-04-05T11:08:25.193Z,50.902363
2023-04-05T11:09:25.153Z,50.902359
2023-04-05T11:10:25.107Z,50.902386
2023-04-05T11:11:25.182Z,50.902359
2023-04-05T11:12:25.094Z,50.902363
2023-04-05T11:13:25.084Z,50.902401
2023-04-05T11:14:25.187Z,50.902374
2023-04-05T11:15:25.148Z,50.902359
2023-04-05T11:16:25.123Z,50.902409
2023-04-05T11:17:25.072Z,50.902382
2023-04-05T11:18:25.057Z,50.902359
2023-04-05T11:19:25.247Z,50.902370
2023-04-05T11:20:25.054Z,50.902355
2023-04-05T11:21:25.014Z,50.902378
2023-04-05T11:22:26.020Z,50.902363
2023-04-05T11:23:25.309Z,50.902382
2023-04-05T11:24:25.039Z,50.902393